createdAt,value
2022-08-27T00:00:29.082Z,2.92
2022-08-27T00:02:56.028Z,2.70
2022-08-27T00:05:23.165Z,2.95
2022-08-27T00:07:50.507Z,2.65
2022-08-27T00:10:22.025Z,2.90
2022-08-27T00:12:48.989Z,2.78
2022-08-27T00:15:17.774Z,2.75
2022-08-27T00:17:46.161Z,2.60
2022-08-27T00:20:16.031Z,2.58
2022-08-27T00:22:43.424Z,2.83
2022-08-27T00:25:11.926Z,2.65
2022-08-27T00:27:39.800Z,2.70
2022-08-27T00:30:11.003Z,2.63
2022-08-27T00:32:37.840Z,3.05
2022-08-27T00:35:05.198Z,2.90
2022-08-27T00:37:32.371Z,2.80
2022-08-27T00:39:59.575Z,2.90
2022-08-27T00:42:26.701Z,2.65
2022-08-27T00:44:58.048Z,2.85
2022-08-27T00:47:27.632Z,2.92
2022-08-27T00:49:58.470Z,2.97
2022-08-27T00:52:30.165Z,2.53
2022-08-27T00:55:08.837Z,2.72
2022-08-27T00:57:39.011Z,2.70
2022-08-27T01:00:11.384Z,2.73
2022-08-27T01:02:38.426Z,2.88
2022-08-27T01:05:14.448Z,2.28
2022-08-27T01:07:45.914Z,3.20
2022-08-27T01:10:16.756Z,2.97
2022-08-27T01:12:44.105Z,2.83
2022-08-27T01:15:19.449Z,2.80
2022-08-27T01:17:48.275Z,2.92
2022-08-27T01:20:23.059Z,2.90
2022-08-27T01:23:01.764Z,2.45
2022-08-27T01:25:29.945Z,2.90
2022-08-27T01:27:59.048Z,2.92
2022-08-27T01:30:26.175Z,2.90
2022-08-27T01:32:54.202Z,2.65
2022-08-27T01:35:22.952Z,2.80
2022-08-27T01:37:53.455Z,2.55
2022-08-27T01:40:24.084Z,2.67
2022-08-27T01:42:55.279Z,2.58
2022-08-27T01:45:29.768Z,2.80
2022-08-27T01:47:58.335Z,2.53
2022-08-27T01:50:28.785Z,3.85
2022-08-27T01:52:56.216Z,4.97
2022-08-27T01:55:26.097Z,6.75
2022-08-27T01:57:54.070Z,7.45
2022-08-27T02:00:28.985Z,4.20
2022-08-27T02:02:57.214Z,3.08
2022-08-27T02:05:25.227Z,2.53
2022-08-27T02:07:52.548Z,2.40
2022-08-27T02:10:23.616Z,2.80
2022-08-27T02:12:51.456Z,2.90
2022-08-27T02:15:19.670Z,2.70
2022-08-27T02:17:47.212Z,2.83
2022-08-27T02:20:15.142Z,3.33
2022-08-27T02:22:42.865Z,3.10
2022-08-27T02:25:11.610Z,3.13
2022-08-27T02:27:38.631Z,2.75
2022-08-27T02:30:06.735Z,2.78
2022-08-27T02:32:33.643Z,2.75
2022-08-27T02:35:01.341Z,2.65
2022-08-27T02:37:28.720Z,2.65
2022-08-27T02:39:55.698Z,2.70
2022-08-27T02:42:22.561Z,2.47
2022-08-27T02:44:49.552Z,4.55
2022-08-27T02:47:16.824Z,2.55
2022-08-27T02:49:44.313Z,2.40
2022-08-27T02:52:11.164Z,2.60
2022-08-27T02:54:38.088Z,2.75
2022-08-27T02:57:06.435Z,2.88
2022-08-27T02:59:33.300Z,2.60
2022-08-27T03:02:00.384Z,2.60
2022-08-27T03:04:28.028Z,2.75
2022-08-27T03:06:55.570Z,2.80
2022-08-27T03:09:22.405Z,2.63
2022-08-27T03:11:49.275Z,2.28
2022-08-27T03:14:16.114Z,2.25
2022-08-27T03:16:42.954Z,2.35
2022-08-27T03:19:11.017Z,2.33
2022-08-27T03:21:37.926Z,2.50
2022-08-27T03:24:09.388Z,2.45
2022-08-27T03:26:39.622Z,2.67
2022-08-27T03:29:07.299Z,2.80
2022-08-27T03:31:34.271Z,2.90
2022-08-27T03:34:04.031Z,2.30
2022-08-27T03:36:31.583Z,2.55
2022-08-27T03:38:58.992Z,2.70
2022-08-27T03:41:43.777Z,2.70
2022-08-27T03:44:21.431Z,2.53
2022-08-27T03:46:50.496Z,2.55
2022-08-27T03:49:20.749Z,2.95
2022-08-27T03:51:50.562Z,2.45
2022-08-27T03:54:17.817Z,2.70
2022-08-27T03:56:44.752Z,2.72
2022-08-27T03:59:11.575Z,2.70
2022-08-27T04:01:38.495Z,2.30
2022-08-27T04:04:05.419Z,2.80
2022-08-27T04:06:34.580Z,2.22
2022-08-27T04:09:01.604Z,2.78
2022-08-27T04:11:28.507Z,2.30
2022-08-27T04:13:55.971Z,2.70
2022-08-27T04:16:22.930Z,2.60
2022-08-27T04:18:49.921Z,2.47
2022-08-27T04:21:16.754Z,2.45
2022-08-27T04:23:44.322Z,2.30
2022-08-27T04:26:12.204Z,7.63
2022-08-27T04:28:39.255Z,22.70
2022-08-27T04:31:12.861Z,32.22
2022-08-27T04:33:50.491Z,45.20
2022-08-27T04:36:18.521Z,56.10
2022-08-27T04:38:45.525Z,11.55
2022-08-27T04:41:12.662Z,3.03
2022-08-27T04:43:39.790Z,2.20
2022-08-27T04:46:07.332Z,2.60
2022-08-27T04:48:34.625Z,2.55
2022-08-27T04:51:05.470Z,2.15
2022-08-27T04:53:33.655Z,2.40
2022-08-27T04:56:00.485Z,2.40
2022-08-27T04:58:27.353Z,2.28
2022-08-27T05:00:57.125Z,3.50
2022-08-27T05:03:24.794Z,7.50
2022-08-27T05:05:52.738Z,7.15
2022-08-27T05:08:20.133Z,3.58
2022-08-27T05:10:50.047Z,2.90
2022-08-27T05:13:19.276Z,2.47
2022-08-27T05:15:47.370Z,2.55
2022-08-27T05:18:14.623Z,2.75
2022-08-27T05:20:48.210Z,2.65
2022-08-27T05:23:16.759Z,2.10
2022-08-27T05:25:46.459Z,2.38
2022-08-27T05:28:15.166Z,2.67
2022-08-27T05:30:45.084Z,2.38
2022-08-27T05:33:22.217Z,2.78
2022-08-27T05:35:52.440Z,2.28
2022-08-27T05:38:20.495Z,2.50
2022-08-27T05:40:48.106Z,2.20
2022-08-27T05:43:17.173Z,2.30
2022-08-27T05:45:48.498Z,2.10
2022-08-27T05:48:16.721Z,2.30
2022-08-27T05:50:45.081Z,2.42
2022-08-27T05:53:12.890Z,2.42
2022-08-27T05:55:45.014Z,2.45
2022-08-27T05:58:13.800Z,2.78
2022-08-27T06:00:40.669Z,2.33
2022-08-27T06:03:07.476Z,2.53
2022-08-27T06:05:34.488Z,2.55
2022-08-27T06:08:01.615Z,2.72
2022-08-27T06:10:28.476Z,2.53
2022-08-27T06:12:57.150Z,2.80
2022-08-27T06:15:24.079Z,2.33
2022-08-27T06:17:51.020Z,2.55
2022-08-27T06:20:17.989Z,2.20
2022-08-27T06:22:44.837Z,2.60
2022-08-27T06:25:11.664Z,2.60
2022-08-27T06:27:38.478Z,2.80
2022-08-27T06:30:05.729Z,2.60
2022-08-27T06:32:32.570Z,2.60
2022-08-27T06:34:59.408Z,4.78
2022-08-27T06:37:26.269Z,2.80
2022-08-27T06:39:53.217Z,2.30
2022-08-27T06:42:20.129Z,2.63
2022-08-27T06:44:52.859Z,2.53
2022-08-27T06:47:21.185Z,2.70
2022-08-27T06:49:48.217Z,2.80
2022-08-27T06:52:15.649Z,2.88
2022-08-27T06:54:42.523Z,2.90
2022-08-27T06:57:09.356Z,2.80
2022-08-27T06:59:36.211Z,3.15
2022-08-27T07:02:06.551Z,3.42
2022-08-27T07:04:33.594Z,2.92
2022-08-27T07:07:01.939Z,2.92
2022-08-27T07:09:28.761Z,3.10
2022-08-27T07:11:55.587Z,2.90
2022-08-27T07:14:22.599Z,2.55
2022-08-27T07:16:49.547Z,2.70
2022-08-27T07:19:18.798Z,3.20
2022-08-27T07:21:45.638Z,2.75
2022-08-27T07:24:12.603Z,2.85
2022-08-27T07:26:42.842Z,2.90
2022-08-27T07:29:13.028Z,3.00
2022-08-27T07:31:39.895Z,3.15
2022-08-27T07:34:07.223Z,3.33
2022-08-27T07:36:35.374Z,3.08
2022-08-27T07:39:02.282Z,3.10
2022-08-27T07:41:34.186Z,2.85
2022-08-27T07:44:01.114Z,2.90
2022-08-27T07:46:28.069Z,2.80
2022-08-27T07:48:55.374Z,3.22
2022-08-27T07:51:23.828Z,3.00
2022-08-27T07:53:51.149Z,3.17
2022-08-27T07:56:18.150Z,3.20
2022-08-27T07:58:45.429Z,2.65
2022-08-27T08:01:13.301Z,2.58
2022-08-27T08:03:41.117Z,2.78
2022-08-27T08:06:11.311Z,2.90
2022-08-27T08:08:39.524Z,2.45
2022-08-27T08:11:14.103Z,2.60
2022-08-27T08:13:41.210Z,2.95
2022-08-27T08:16:08.347Z,2.63
2022-08-27T08:18:37.278Z,3.38
2022-08-27T08:21:07.377Z,2.60
2022-08-27T08:23:34.958Z,2.67
2022-08-27T08:26:02.278Z,3.10
2022-08-27T08:28:29.210Z,2.70
2022-08-27T08:30:58.989Z,2.97
2022-08-27T08:33:26.330Z,2.90
2022-08-27T08:35:53.492Z,2.80
2022-08-27T08:38:20.602Z,3.13
2022-08-27T08:40:52.444Z,2.83
2022-08-27T08:43:27.636Z,3.22
2022-08-27T08:45:57.049Z,2.42
2022-08-27T08:48:27.793Z,2.55
2022-08-27T08:51:02.089Z,2.72
2022-08-27T08:53:47.903Z,2.80
2022-08-27T08:56:48.492Z,2.55
2022-08-27T08:59:50.457Z,2.85
2022-08-27T09:02:17.783Z,2.65
2022-08-27T09:04:44.842Z,2.90
2022-08-27T09:07:35.981Z,2.78
2022-08-27T09:10:16.799Z,2.90
2022-08-27T09:12:43.723Z,2.57
2022-08-27T09:15:20.122Z,2.88
2022-08-27T09:17:47.053Z,4.15
2022-08-27T09:20:20.519Z,3.42
2022-08-27T09:23:11.430Z,2.72
2022-08-27T09:25:41.439Z,3.10
2022-08-27T09:28:20.811Z,3.05
2022-08-27T09:30:47.720Z,2.40
2022-08-27T09:33:14.589Z,2.40
2022-08-27T09:35:45.775Z,2.85
2022-08-27T09:38:31.683Z,3.70
2022-08-27T09:41:01.689Z,2.63
2022-08-27T09:43:30.098Z,2.53
2022-08-27T09:46:18.215Z,2.72
2022-08-27T09:48:45.248Z,2.45
2022-08-27T09:51:30.831Z,2.70
2022-08-27T09:54:01.022Z,2.38
2022-08-27T09:56:37.791Z,2.50
2022-08-27T09:59:10.844Z,2.85
2022-08-27T10:01:52.905Z,2.35
2022-08-27T10:04:37.966Z,2.33
2022-08-27T10:07:28.505Z,2.30
2022-08-27T10:10:04.962Z,2.55
2022-08-27T10:12:45.402Z,2.53
2022-08-27T10:15:14.154Z,2.88
2022-08-27T10:18:09.107Z,2.90
2022-08-27T10:21:02.218Z,2.90
2022-08-27T10:23:41.591Z,2.72
2022-08-27T10:26:41.764Z,2.80
2022-08-27T10:29:20.748Z,2.70
2022-08-27T10:31:59.130Z,3.03
2022-08-27T10:34:32.009Z,2.75
2022-08-27T10:37:40.167Z,2.80
2022-08-27T10:40:26.396Z,2.63
2022-08-27T10:43:03.225Z,2.63
2022-08-27T10:45:40.683Z,2.70
2022-08-27T10:48:16.250Z,2.90
2022-08-27T10:50:50.200Z,2.70
2022-08-27T10:53:26.426Z,2.70
2022-08-27T10:56:09.184Z,2.72
2022-08-27T10:58:39.152Z,2.70
2022-08-27T11:01:27.632Z,2.30
2022-08-27T11:04:13.232Z,2.70
2022-08-27T11:06:51.145Z,2.72
2022-08-27T11:09:22.797Z,2.97
2022-08-27T11:14:51.816Z,2.45
2022-08-27T11:17:59.421Z,2.65
2022-08-27T11:20:32.484Z,2.88
2022-08-27T11:23:17.833Z,2.60
2022-08-27T11:26:02.648Z,2.50
2022-08-27T11:28:50.949Z,2.75
2022-08-27T11:31:42.398Z,2.58
2022-08-27T11:34:25.929Z,2.72
2022-08-27T11:37:04.807Z,2.58
2022-08-27T11:39:47.598Z,2.47
2022-08-27T11:42:23.942Z,2.70
2022-08-27T11:44:55.917Z,2.90
2022-08-27T11:47:25.894Z,2.35
2022-08-27T11:50:07.392Z,2.47
2022-08-27T11:52:39.205Z,2.40
2022-08-27T11:55:29.963Z,2.35
2022-08-27T12:00:41.602Z,2.90
2022-08-27T12:03:23.913Z,2.25
2022-08-27T12:05:53.974Z,2.42
2022-08-27T12:08:24.023Z,2.42
2022-08-27T12:11:02.846Z,2.38
2022-08-27T12:13:40.754Z,2.40
2022-08-27T12:16:25.461Z,2.30
2022-08-27T12:19:07.736Z,2.40
2022-08-27T12:22:04.013Z,2.25
2022-08-27T12:24:53.037Z,2.40
2022-08-27T12:27:22.707Z,2.40
2022-08-27T12:30:19.842Z,2.65
2022-08-27T12:32:49.506Z,2.45
2022-08-27T12:35:23.511Z,2.90
2022-08-27T12:37:56.927Z,2.50
2022-08-27T12:40:31.196Z,2.60
2022-08-27T12:43:13.182Z,2.63
2022-08-27T12:45:47.924Z,2.60
2022-08-27T12:48:19.534Z,2.33
2022-08-27T12:50:52.428Z,2.60
2022-08-27T12:53:46.984Z,2.33
2022-08-27T12:56:32.456Z,2.47
2022-08-27T12:59:37.208Z,2.70
2022-08-27T13:02:16.079Z,2.65
2022-08-27T13:04:43.779Z,2.60
2022-08-27T13:07:10.781Z,2.53
2022-08-27T13:09:39.643Z,2.38
2022-08-27T13:12:15.674Z,2.60
2022-08-27T13:14:42.571Z,2.60
2022-08-27T13:17:15.916Z,2.20
2022-08-27T13:19:57.590Z,2.70
2022-08-27T13:22:28.968Z,2.50
2022-08-27T13:24:57.359Z,2.17
2022-08-27T13:27:26.970Z,2.20
2022-08-27T13:29:54.761Z,2.20
2022-08-27T13:32:24.642Z,2.00
2022-08-27T13:34:51.735Z,2.55
2022-08-27T13:37:25.834Z,2.40
2022-08-27T13:39:55.621Z,2.28
2022-08-27T13:42:24.302Z,2.40
2022-08-27T13:44:53.999Z,2.13
2022-08-27T13:47:26.611Z,2.37
2022-08-27T13:50:04.831Z,2.45
2022-08-27T13:52:34.765Z,9.32
2022-08-27T13:55:10.395Z,3.90
2022-08-27T13:57:49.779Z,3.10
2022-08-27T14:00:20.513Z,3.10
2022-08-27T14:02:56.281Z,2.75
2022-08-27T14:05:23.520Z,2.65
2022-08-27T14:08:13.395Z,3.55
2022-08-27T14:10:43.845Z,2.60
2022-08-27T14:13:22.342Z,3.17
2022-08-27T14:15:54.831Z,2.30
2022-08-27T14:18:58.012Z,2.53
2022-08-27T14:21:22.330Z,2.40
2022-08-27T14:23:50.140Z,2.10
2022-08-27T14:26:17.850Z,2.17
2022-08-27T14:28:45.999Z,2.60
2022-08-27T14:31:13.932Z,2.53
2022-08-27T14:33:41.156Z,2.20
2022-08-27T14:36:09.544Z,2.30
2022-08-27T14:38:41.055Z,2.47
2022-08-27T14:41:08.683Z,2.30
2022-08-27T14:43:35.893Z,2.50
2022-08-27T14:46:03.717Z,2.30
2022-08-27T14:48:33.146Z,2.28
2022-08-27T14:51:04.265Z,2.83
2022-08-27T14:53:31.146Z,2.75
2022-08-27T14:55:58.023Z,2.80
2022-08-27T14:58:24.920Z,2.50
2022-08-27T15:00:51.885Z,2.65
2022-08-27T15:03:18.784Z,5.13
2022-08-27T15:05:45.762Z,2.80
2022-08-27T15:08:14.702Z,2.83
2022-08-27T15:10:42.377Z,14.65
2022-08-27T15:13:09.233Z,2.00
2022-08-27T15:15:36.164Z,2.30
2022-08-27T15:18:03.575Z,2.60
2022-08-27T15:20:31.649Z,2.63
2022-08-27T15:22:58.656Z,2.45
2022-08-27T15:25:25.972Z,2.25
2022-08-27T15:27:52.890Z,2.25
2022-08-27T15:30:26.264Z,2.22
2022-08-27T15:32:53.390Z,2.33
2022-08-27T15:35:23.186Z,2.20
2022-08-27T15:37:50.026Z,2.37
2022-08-27T15:40:18.713Z,2.33
2022-08-27T15:42:53.399Z,2.30
2022-08-27T15:45:20.487Z,2.30
2022-08-27T15:47:52.701Z,2.13
2022-08-27T15:50:19.669Z,2.55
2022-08-27T15:52:47.240Z,2.50
2022-08-27T15:55:23.862Z,12.88
2022-08-27T15:57:50.877Z,2.78
2022-08-27T16:00:18.838Z,2.60
2022-08-27T16:02:46.567Z,2.15
2022-08-27T16:05:15.760Z,2.40
2022-08-27T16:07:43.533Z,2.50
2022-08-27T16:10:11.996Z,2.50
2022-08-27T16:12:38.916Z,2.30
2022-08-27T16:15:07.010Z,2.60
2022-08-27T16:17:35.320Z,2.55
2022-08-27T16:20:02.398Z,2.50
2022-08-27T16:22:29.316Z,2.47
2022-08-27T16:24:56.142Z,2.60
2022-08-27T16:27:23.053Z,2.70
2022-08-27T16:29:49.872Z,2.70
2022-08-27T16:32:18.812Z,2.78
2022-08-27T16:34:46.722Z,3.00
2022-08-27T16:37:13.922Z,2.90
2022-08-27T16:39:41.990Z,2.67
2022-08-27T16:42:10.283Z,2.88
2022-08-27T16:44:37.950Z,3.00
2022-08-27T16:47:06.440Z,3.05
2022-08-27T16:49:33.322Z,3.10
2022-08-27T16:52:00.122Z,2.97
2022-08-27T16:54:27.644Z,2.65
2022-08-27T16:56:54.980Z,2.78
2022-08-27T16:59:21.814Z,2.72
2022-08-27T17:01:51.992Z,3.17
2022-08-27T17:04:28.521Z,3.30
2022-08-27T17:06:57.256Z,2.90
2022-08-27T17:09:25.240Z,3.30
2022-08-27T17:11:57.470Z,2.90
2022-08-27T17:14:24.969Z,2.72
2022-08-27T17:16:51.903Z,2.88
2022-08-27T17:19:18.771Z,3.58
2022-08-27T17:21:45.831Z,3.35
2022-08-27T17:24:13.131Z,2.88
2022-08-27T17:26:40.528Z,3.13
2022-08-27T17:29:07.510Z,3.03
2022-08-27T17:31:36.813Z,2.70
2022-08-27T17:34:05.559Z,2.88
2022-08-27T17:36:33.161Z,3.60
2022-08-27T17:39:00.522Z,3.30
2022-08-27T17:41:33.447Z,10.32
2022-08-27T17:44:04.185Z,12.10
2022-08-27T17:46:31.170Z,6.30
2022-08-27T17:48:58.341Z,3.42
2022-08-27T17:51:25.919Z,3.45
2022-08-27T17:54:00.524Z,3.60
2022-08-27T17:56:29.646Z,3.08
2022-08-27T17:58:57.365Z,3.15
2022-08-27T18:01:32.314Z,3.30
2022-08-27T18:03:59.925Z,3.20
2022-08-27T18:06:27.887Z,3.13
2022-08-27T18:08:54.764Z,3.60
2022-08-27T18:11:21.713Z,3.10
2022-08-27T18:13:52.784Z,3.00
2022-08-27T18:16:20.476Z,3.35
2022-08-27T18:18:47.785Z,3.58
2022-08-27T18:21:25.058Z,3.50
2022-08-27T18:23:53.721Z,2.80
2022-08-27T18:26:23.517Z,3.38
2022-08-27T18:28:50.685Z,3.10
2022-08-27T18:31:19.612Z,3.30
2022-08-27T18:33:46.726Z,3.00
2022-08-27T18:36:13.683Z,3.10
2022-08-27T18:38:40.736Z,2.90
2022-08-27T18:41:08.366Z,3.05
2022-08-27T18:43:36.477Z,3.00
2022-08-27T18:46:05.048Z,3.05
2022-08-27T18:48:32.894Z,3.05
2022-08-27T18:51:01.919Z,2.78
2022-08-27T18:53:31.892Z,3.10
2022-08-27T18:56:01.348Z,2.92
2022-08-27T18:58:28.843Z,3.33
2022-08-27T19:00:59.350Z,3.28
2022-08-27T19:03:33.217Z,3.10
2022-08-27T19:06:01.216Z,3.15
2022-08-27T19:08:35.616Z,2.97
2022-08-27T19:11:02.796Z,3.10
2022-08-27T19:13:30.229Z,3.60
2022-08-27T19:15:59.825Z,3.20
2022-08-27T19:18:29.801Z,3.30
2022-08-27T19:20:56.867Z,3.30
2022-08-27T19:23:24.225Z,3.25
2022-08-27T19:25:51.533Z,3.00
2022-08-27T19:28:19.953Z,3.38
2022-08-27T19:30:47.281Z,3.13
2022-08-27T19:33:14.106Z,2.80
2022-08-27T19:35:42.094Z,3.05
2022-08-27T19:38:12.436Z,3.30
2022-08-27T19:40:40.203Z,3.20
2022-08-27T19:43:07.803Z,3.30
2022-08-27T19:45:35.498Z,3.13
2022-08-27T19:48:07.850Z,3.35
2022-08-27T19:50:34.914Z,3.17
2022-08-27T19:53:01.791Z,3.25
2022-08-27T19:55:28.666Z,3.25
2022-08-27T19:57:55.756Z,3.40
2022-08-27T20:00:27.612Z,3.05
2022-08-27T20:02:55.380Z,3.30
2022-08-27T20:05:22.813Z,3.00
2022-08-27T20:07:52.521Z,2.88
2022-08-27T20:10:22.558Z,3.28
2022-08-27T20:12:50.120Z,3.00
2022-08-27T20:15:18.171Z,3.10
2022-08-27T20:17:45.257Z,3.00
2022-08-27T20:20:12.945Z,3.13
2022-08-27T20:22:39.854Z,3.30
2022-08-27T20:25:07.284Z,3.13
2022-08-27T20:27:34.333Z,3.33
2022-08-27T20:30:01.219Z,3.30
2022-08-27T20:32:30.038Z,3.25
2022-08-27T20:34:57.687Z,3.50
2022-08-27T20:37:24.918Z,3.50
2022-08-27T20:39:52.300Z,2.95
2022-08-27T20:42:19.513Z,2.90
2022-08-27T20:44:47.055Z,2.85
2022-08-27T20:47:14.493Z,3.25
2022-08-27T20:49:41.482Z,3.28
2022-08-27T20:52:11.465Z,3.17
2022-08-27T20:54:39.299Z,3.20
2022-08-27T20:57:06.247Z,2.85
2022-08-27T20:59:33.067Z,3.17
2022-08-27T21:02:05.830Z,3.38
2022-08-27T21:04:41.139Z,3.00
2022-08-27T21:07:08.078Z,2.90
2022-08-27T21:09:56.302Z,2.88
2022-08-27T21:12:26.910Z,3.03
2022-08-27T21:14:55.875Z,3.10
2022-08-27T21:17:24.730Z,2.90
2022-08-27T21:19:52.227Z,2.70
2022-08-27T21:22:20.002Z,2.67
2022-08-27T21:24:46.839Z,3.17
2022-08-27T21:27:15.276Z,2.78
2022-08-27T21:29:42.119Z,3.00
2022-08-27T21:32:08.975Z,2.80
2022-08-27T21:34:35.813Z,3.00
2022-08-27T21:37:03.400Z,2.95
2022-08-27T21:39:30.664Z,2.83
2022-08-27T21:41:57.522Z,2.65
2022-08-27T21:44:24.272Z,2.60
2022-08-27T21:46:51.426Z,2.78
2022-08-27T21:49:18.258Z,2.78
2022-08-27T21:51:45.153Z,3.00
2022-08-27T21:54:12.426Z,3.03
2022-08-27T21:56:39.807Z,3.08
2022-08-27T21:59:06.762Z,3.33
2022-08-27T22:01:33.719Z,3.00
2022-08-27T22:04:00.986Z,3.03
2022-08-27T22:06:27.949Z,2.90
2022-08-27T22:08:54.847Z,2.80
2022-08-27T22:11:24.134Z,2.95
2022-08-27T22:13:51.730Z,2.67
2022-08-27T22:16:18.793Z,2.75
2022-08-27T22:18:45.617Z,2.63
2022-08-27T22:21:12.631Z,2.95
2022-08-27T22:23:39.430Z,2.80
2022-08-27T22:26:11.558Z,2.47
2022-08-27T22:28:38.386Z,2.67
2022-08-27T22:31:07.393Z,2.60
2022-08-27T22:33:34.381Z,2.40
2022-08-27T22:36:01.280Z,2.58
2022-08-27T22:38:28.286Z,2.45
2022-08-27T22:40:55.251Z,2.47
2022-08-27T22:43:22.105Z,2.13
2022-08-27T22:45:48.938Z,2.65
2022-08-27T22:48:15.822Z,2.70
2022-08-27T22:50:42.672Z,2.55
2022-08-27T22:53:09.729Z,2.40
2022-08-27T22:55:36.681Z,2.75
2022-08-27T22:58:04.338Z,2.72
2022-08-27T23:00:35.238Z,2.75
2022-08-27T23:03:04.472Z,2.60
2022-08-27T23:05:40.386Z,2.75
2022-08-27T23:08:11.121Z,2.70
2022-08-27T23:10:38.735Z,2.55
2022-08-27T23:13:06.827Z,3.03
2022-08-27T23:15:34.414Z,3.05
2022-08-27T23:18:01.242Z,3.53
2022-08-27T23:20:28.817Z,3.20
2022-08-27T23:22:56.613Z,2.92
2022-08-27T23:25:25.579Z,3.17
2022-08-27T23:27:52.466Z,3.50
2022-08-27T23:30:19.861Z,3.10
2022-08-27T23:32:49.815Z,3.25
2022-08-27T23:35:21.340Z,3.20
2022-08-27T23:37:49.038Z,3.28
2022-08-27T23:40:16.528Z,3.45
2022-08-27T23:42:45.952Z,3.35
2022-08-27T23:45:19.175Z,3.08
2022-08-27T23:47:46.221Z,3.00
2022-08-27T23:50:13.227Z,3.25
2022-08-27T23:52:40.191Z,3.10
2022-08-27T23:55:08.654Z,3.10
2022-08-27T23:57:35.572Z,3.20
